Time,TemperatureF,DewpointF,PressureIn,WindDirection,WindDirectionDegrees,WindSpeedMPH,WindSpeedGustMPH,Humidity,HourlyPrecipIn,Conditions,Clouds,dailyrainin,SoftwareType,DateUTC
2013-12-20 00:12:00,38.3,35.6,29.66,North,350,3.0,15.0,90,0.00,,---,0.00,VWS V14.01,2013-12-20 06:12:00,
2013-12-20 00:27:00,37.9,35.2,29.67,NNW,336,8.0,12.0,90,0.00,,---,0.00,VWS V14.01,2013-12-20 06:27:00,
2013-12-20 00:42:00,37.5,35.1,29.67,NNW,338,5.0,13.0,91,0.00,,---,0.00,VWS V14.01,2013-12-20 06:42:00,
2013-12-20 00:57:00,37.0,34.6,29.68,NNW,340,6.0,12.0,91,0.00,,---,0.00,VWS V14.01,2013-12-20 06:57:00,
2013-12-20 01:12:00,36.2,34.1,29.69,NNW,336,8.0,19.0,92,0.00,,---,0.00,VWS V14.01,2013-12-20 07:12:00,
2013-12-20 01:27:00,35.6,33.8,29.69,NW,321,8.0,16.0,93,0.00,,---,0.00,VWS V14.01,2013-12-20 07:27:00,
2013-12-20 01:42:00,35.1,33.3,29.70,North,355,10.0,17.0,93,0.00,,---,0.00,VWS V14.01,2013-12-20 07:42:00,
2013-12-20 01:57:00,34.9,33.3,29.69,North,355,7.0,15.0,94,0.00,,---,0.00,VWS V14.01,2013-12-20 07:57:00,
2013-12-20 02:12:00,34.6,33.0,29.70,NW,309,5.0,14.0,94,0.00,,---,0.00,VWS V14.01,2013-12-20 08:12:00,
2013-12-20 02:27:00,34.4,32.9,29.70,North,5,7.0,12.0,94,0.00,,---,0.00,VWS V14.01,2013-12-20 08:27:00,
2013-12-20 02:42:00,33.6,32.1,29.71,NNW,343,11.0,17.0,94,0.00,,---,0.00,VWS V14.01,2013-12-20 08:42:00,
2013-12-20 02:57:00,33.3,31.8,29.73,NW,323,2.0,17.0,94,0.00,,---,0.00,VWS V14.01,2013-12-20 08:57:00,
2013-12-20 03:12:00,32.7,31.2,29.73,NNW,346,7.0,17.0,94,0.00,,---,0.00,VWS V14.01,2013-12-20 09:12:00,
2013-12-20 03:27:00,31.9,30.4,29.72,North,360,8.0,18.0,94,0.00,,---,0.00,VWS V14.01,2013-12-20 09:27:00,
2013-12-20 03:42:00,31.5,30.0,29.73,NNW,327,14.0,17.0,94,0.00,,---,0.00,VWS V14.01,2013-12-20 09:42:00,
2013-12-20 03:57:00,30.8,29.3,29.74,NNW,347,9.0,19.0,94,0.00,,---,0.00,VWS V14.01,2013-12-20 09:57:00,
2013-12-20 04:12:00,30.6,29.1,29.74,NNW,336,12.0,17.0,94,0.00,,---,0.00,VWS V14.01,2013-12-20 10:12:00,
2013-12-20 04:27:00,30.1,28.6,29.74,NNW,330,10.0,18.0,94,0.00,,---,0.00,VWS V14.01,2013-12-20 10:27:00,
2013-12-20 04:42:00,29.9,28.4,29.75,North,355,10.0,15.0,94,0.00,,---,0.00,VWS V14.01,2013-12-20 10:42:00,
2013-12-20 04:57:00,29.6,28.1,29.75,North,355,14.0,17.0,94,0.00,,---,0.00,VWS V14.01,2013-12-20 10:57:00,
2013-12-20 05:12:00,29.1,27.6,29.76,North,355,8.0,17.0,94,0.00,,---,0.00,VWS V14.01,2013-12-20 11:12:00,
2013-12-20 05:27:00,28.7,27.2,29.76,NNW,336,7.0,17.0,94,0.00,,---,0.00,VWS V14.01,2013-12-20 11:27:00,
2013-12-20 05:42:00,28.3,26.8,29.77,NNW,330,4.0,16.0,94,0.00,,---,0.00,VWS V14.01,2013-12-20 11:42:00,
2013-12-20 05:57:00,28.3,26.8,29.77,NNW,329,10.0,13.0,94,0.00,,---,0.00,VWS V14.01,2013-12-20 11:57:00,
2013-12-20 06:12:00,27.8,26.3,29.80,NNW,328,4.0,14.0,94,0.00,,---,0.00,VWS V14.01,2013-12-20 12:12:00,
2013-12-20 06:27:00,27.4,25.9,29.80,West,281,8.0,14.0,94,0.00,,---,0.00,VWS V14.01,2013-12-20 12:27:00,
2013-12-20 06:42:00,27.1,25.6,29.79,NNW,330,6.0,17.0,94,0.00,,---,0.00,VWS V14.01,2013-12-20 12:42:00,
2013-12-20 06:57:00,26.9,25.4,29.80,NNW,331,8.0,13.0,94,0.00,,---,0.00,VWS V14.01,2013-12-20 12:57:00,
2013-12-20 07:12:00,26.6,25.1,29.80,NW,326,5.0,12.0,94,0.00,,---,0.00,VWS V14.01,2013-12-20 13:12:00,
2013-12-20 07:27:00,26.2,24.7,29.81,NNW,329,7.0,16.0,94,0.00,,---,0.00,VWS V14.01,2013-12-20 13:27:00,
2013-12-20 07:42:00,25.7,24.2,29.81,NW,326,8.0,15.0,94,0.00,,---,0.00,VWS V14.01,2013-12-20 13:42:00,
2013-12-20 07:57:00,25.4,23.9,29.82,NW,324,7.0,16.0,94,0.00,,---,0.00,VWS V14.01,2013-12-20 13:57:00,
2013-12-20 08:12:00,25.1,23.6,29.83,WNW,288,8.0,13.0,94,0.00,,---,0.00,VWS V14.01,2013-12-20 14:12:00,
2013-12-20 08:27:00,25.0,23.5,29.85,NW,307,4.0,12.0,94,0.00,,---,0.00,VWS V14.01,2013-12-20 14:27:00,
2013-12-20 08:42:00,24.9,23.4,29.85,NNW,342,8.0,12.0,94,0.00,,---,0.00,VWS V14.01,2013-12-20 14:42:00,
2013-12-20 08:57:00,24.6,23.1,29.87,NW,312,7.0,13.0,94,0.00,,---,0.00,VWS V14.01,2013-12-20 14:57:00,
2013-12-20 09:12:00,24.3,22.8,29.87,NNW,333,4.0,14.0,94,0.00,,---,0.00,VWS V14.01,2013-12-20 15:12:00,
2013-12-20 09:27:00,23.8,22.3,29.88,NNW,327,7.0,13.0,94,0.00,,---,0.00,VWS V14.01,2013-12-20 15:27:00,
2013-12-20 09:42:00,23.4,21.9,29.87,NW,309,10.0,14.0,94,0.00,,---,0.00,VWS V14.01,2013-12-20 15:42:00,
2013-12-20 09:57:00,23.0,21.5,29.89,NW,326,6.0,12.0,94,0.00,,---,0.00,VWS V14.01,2013-12-20 15:57:00,
2013-12-20 10:12:00,22.8,21.3,29.89,WNW,294,7.0,12.0,94,0.00,,---,0.00,VWS V14.01,2013-12-20 16:12:00,
2013-12-20 10:27:00,22.7,21.2,29.91,WNW,302,3.0,12.0,94,0.00,,---,0.00,VWS V14.01,2013-12-20 16:27:00,
2013-12-20 10:42:00,22.3,20.8,29.92,WNW,287,5.0,12.0,94,0.00,,---,0.00,VWS V14.01,2013-12-20 16:42:00,
2013-12-20 10:57:00,21.8,20.3,29.92,NW,306,3.0,11.0,94,0.00,,---,0.00,VWS V14.01,2013-12-20 16:57:00,
2013-12-20 11:12:00,21.6,20.1,29.91,WNW,291,5.0,13.0,94,0.00,,---,0.00,VWS V14.01,2013-12-20 17:12:00,
2013-12-20 11:27:00,21.6,20.1,29.89,NW,315,1.0,11.0,94,0.00,,---,0.00,VWS V14.01,2013-12-20 17:27:00,
2013-12-20 11:42:00,22.0,20.5,29.88,NW,325,3.0,8.0,94,0.00,,---,0.00,VWS V14.01,2013-12-20 17:42:00,
2013-12-20 11:57:00,21.8,20.3,29.88,West,280,7.0,11.0,94,0.00,,---,0.00,VWS V14.01,2013-12-20 17:57:00,
2013-12-20 12:12:00,21.7,20.2,29.88,WNW,302,2.0,14.0,94,0.00,,---,0.00,VWS V14.01,2013-12-20 18:12:00,
2013-12-20 12:27:00,21.6,20.1,29.87,NW,311,4.0,13.0,94,0.00,,---,0.00,VWS V14.01,2013-12-20 18:27:00,
2013-12-20 12:42:00,21.5,20.0,29.88,WNW,294,5.0,12.0,94,0.00,,---,0.00,VWS V14.01,2013-12-20 18:42:00,
2013-12-20 12:57:00,21.3,19.9,29.88,NW,304,4.0,17.0,94,0.00,,---,0.00,VWS V14.01,2013-12-20 18:57:00,
2013-12-20 13:12:00,21.1,19.6,29.89,WNW,294,3.0,10.0,94,0.00,,---,0.00,VWS V14.01,2013-12-20 19:12:00,
2013-12-20 13:27:00,21.3,19.9,29.89,NW,311,2.0,10.0,94,0.00,,---,0.00,VWS V14.01,2013-12-20 19:27:00,
2013-12-20 13:42:00,21.0,19.5,29.88,West,271,3.0,8.0,94,0.00,,---,0.00,VWS V14.01,2013-12-20 19:42:00,
2013-12-20 13:57:00,20.8,19.4,29.88,WNW,300,5.0,9.0,94,0.00,,---,0.00,VWS V14.01,2013-12-20 19:57:00,
2013-12-20 14:12:00,20.6,19.1,29.88,WNW,291,8.0,11.0,94,0.00,,---,0.00,VWS V14.01,2013-12-20 20:12:00,
2013-12-20 14:27:00,20.6,19.1,29.89,West,281,3.0,8.0,94,0.00,,---,0.00,VWS V14.01,2013-12-20 20:27:00,
2013-12-20 14:42:00,20.7,19.2,29.89,West,273,1.0,5.0,94,0.00,,---,0.00,VWS V14.01,2013-12-20 20:42:00,
2013-12-20 14:57:00,20.9,19.5,29.90,WSW,243,1.0,7.0,94,0.00,,---,0.00,VWS V14.01,2013-12-20 20:57:00,
2013-12-20 15:12:00,20.8,19.4,29.89,WNW,291,5.0,7.0,94,0.00,,---,0.00,VWS V14.01,2013-12-20 21:12:00,
2013-12-20 15:27:00,20.8,19.4,29.90,WNW,296,5.0,8.0,94,0.00,,---,0.00,VWS V14.01,2013-12-20 21:27:00,
2013-12-20 15:42:00,20.9,19.5,29.90,NW,314,2.0,7.0,94,0.00,,---,0.00,VWS V14.01,2013-12-20 21:42:00,
2013-12-20 15:57:00,21.0,19.5,29.90,WNW,286,5.0,8.0,94,0.00,,---,0.00,VWS V14.01,2013-12-20 21:57:00,
2013-12-20 16:12:00,21.0,19.3,29.91,WNW,290,4.0,8.0,93,0.00,,---,0.00,VWS V14.01,2013-12-20 22:12:00,
2013-12-20 16:27:00,21.0,19.3,29.90,WNW,290,6.0,8.0,93,0.00,,---,0.00,VWS V14.01,2013-12-20 22:27:00,
2013-12-20 16:42:00,21.1,19.4,29.91,NW,320,5.0,8.0,93,0.00,,---,0.00,VWS V14.01,2013-12-20 22:42:00,
2013-12-20 16:57:00,21.1,19.4,29.93,WNW,286,2.0,11.0,93,0.00,,---,0.00,VWS V14.01,2013-12-20 22:57:00,
2013-12-20 17:12:00,21.1,19.4,29.92,WNW,296,2.0,7.0,93,0.00,,---,0.00,VWS V14.01,2013-12-20 23:12:00,
2013-12-20 17:27:00,21.1,19.4,29.92,WNW,286,1.0,8.0,93,0.00,,---,0.00,VWS V14.01,2013-12-20 23:27:00,
2013-12-20 17:42:00,20.9,19.2,29.92,West,279,4.0,6.0,93,0.00,,---,0.00,VWS V14.01,2013-12-20 23:42:00,
2013-12-20 17:57:00,20.9,19.2,29.93,WNW,284,1.0,6.0,93,0.00,,---,0.00,VWS V14.01,2013-12-20 23:57:00,
2013-12-20 18:12:00,20.9,19.2,29.93,WNW,286,0.0,7.0,93,0.00,,---,0.00,VWS V14.01,2013-12-21 00:12:00,
2013-12-20 18:27:00,20.8,19.1,29.92,WNW,291,2.0,7.0,93,0.00,,---,0.00,VWS V14.01,2013-12-21 00:27:00,
2013-12-20 18:42:00,20.8,19.1,29.90,WNW,298,1.0,9.0,93,0.00,,---,0.00,VWS V14.01,2013-12-21 00:42:00,
2013-12-20 18:57:00,20.9,19.2,29.92,WNW,294,0.0,6.0,93,0.00,,---,0.00,VWS V14.01,2013-12-21 00:57:00,
2013-12-20 19:12:00,20.8,19.1,29.90,NW,309,2.0,5.0,93,0.00,,---,0.00,VWS V14.01,2013-12-21 01:12:00,
2013-12-20 19:27:00,20.9,19.2,29.90,NW,305,2.0,4.0,93,0.00,,---,0.00,VWS V14.01,2013-12-21 01:27:00,
2013-12-20 19:42:00,20.8,19.1,29.91,NW,305,0.0,4.0,93,0.00,,---,0.00,VWS V14.01,2013-12-21 01:42:00,
2013-12-20 19:57:00,20.8,19.1,29.90,NW,305,0.0,4.0,93,0.00,,---,0.00,VWS V14.01,2013-12-21 01:57:00,
2013-12-20 20:12:00,20.8,19.1,29.90,NW,305,1.0,2.0,93,0.00,,---,0.00,VWS V14.01,2013-12-21 02:12:00,
2013-12-20 20:27:00,20.8,19.1,29.90,NW,305,0.0,3.0,93,0.00,,---,0.00,VWS V14.01,2013-12-21 02:27:00,
2013-12-20 20:42:00,20.9,19.2,29.89,NW,305,0.0,3.0,93,0.00,,---,0.00,VWS V14.01,2013-12-21 02:42:00,
2013-12-20 20:57:00,20.9,19.2,29.89,NW,305,0.0,4.0,93,0.00,,---,0.00,VWS V14.01,2013-12-21 02:57:00,
2013-12-20 21:12:00,20.9,19.2,29.88,NW,305,0.0,2.0,93,0.00,,---,0.00,VWS V14.01,2013-12-21 03:12:00,
2013-12-20 21:27:00,20.9,19.2,29.90,NW,305,1.0,3.0,93,0.00,,---,0.00,VWS V14.01,2013-12-21 03:27:00,
2013-12-20 21:42:00,21.1,19.4,29.92,NW,305,1.0,2.0,93,0.00,,---,0.00,VWS V14.01,2013-12-21 03:42:00,
2013-12-20 21:57:00,21.2,19.5,29.92,NW,305,0.0,2.0,93,0.00,,---,0.00,VWS V14.01,2013-12-21 03:57:00,
2013-12-20 22:12:00,21.3,19.6,29.94,NW,305,0.0,3.0,93,0.00,,---,0.00,VWS V14.01,2013-12-21 04:12:00,
2013-12-20 22:27:00,21.3,19.6,29.93,NW,305,2.0,3.0,93,0.00,,---,0.00,VWS V14.01,2013-12-21 04:27:00,
2013-12-20 22:42:00,21.3,19.6,29.93,NW,305,0.0,4.0,93,0.00,,---,0.00,VWS V14.01,2013-12-21 04:42:00,
2013-12-20 22:57:00,21.3,19.6,29.92,NW,304,0.0,5.0,93,0.00,,---,0.00,VWS V14.01,2013-12-21 04:57:00,
2013-12-20 23:12:00,21.3,19.3,29.92,NW,304,1.0,4.0,92,0.00,,---,0.00,VWS V14.01,2013-12-21 05:12:00,
2013-12-20 23:27:00,21.2,19.2,29.92,NW,304,2.0,4.0,92,0.00,,---,0.00,VWS V14.01,2013-12-21 05:27:00,
2013-12-20 23:42:00,21.3,19.3,29.92,West,281,3.0,6.0,92,0.00,,---,0.00,VWS V14.01,2013-12-21 05:42:00,
2013-12-20 23:57:00,21.3,19.3,29.92,NW,304,0.0,6.0,92,0.00,,---,0.00,VWS V14.01,2013-12-21 05:57:00,